Time;durP1;ratioP1;P1;durP2;ratioP2;P2;SDS_P1;SDS_P2;PMS_P1;PMS_P2;Temp;Humidity;BMP_temperature;BMP_pressure;BME280_temperature;BME280_humidity;BME280_pressure;Samples;Min_cycle;Max_cycle;Signal;HPM_P1;HPM_P2
2023/07/26 00:01:54;;;;;;;;;;;23.50;88.60;;;;;;5115715;28;20425;-77
2023/07/26 00:04:19;;;;;;;;;;;23.50;88.60;;;;;;5115898;28;19904;-76
2023/07/26 00:06:45;;;;;;;;;;;23.50;88.60;;;;;;5097745;28;19986;-77
2023/07/26 00:09:10;;;;;;;;;;;23.50;88.60;;;;;;5115644;28;19933;-77
2023/07/26 00:11:36;;;;;;;;;;;23.50;88.60;;;;;;5115785;28;20257;-77
2023/07/26 00:14:03;;;;;;;;;;;23.50;88.50;;;;;;5115422;28;19904;-77
2023/07/26 00:16:30;;;;;;;;;;;23.50;88.50;;;;;;5115621;28;19904;-77
2023/07/26 00:18:56;;;;;;;;;;;23.50;88.50;;;;;;5115348;28;19908;-77
2023/07/26 00:21:22;;;;;;;;;;;23.50;88.50;;;;;;5115308;28;19957;-77
2023/07/26 00:23:47;;;;;;;;;;;23.50;88.50;;;;;;5115528;28;20235;-77
2023/07/26 00:26:12;;;;;;;;;;;23.50;88.50;;;;;;5115468;28;19911;-77
2023/07/26 00:28:38;;;;;;;;;;;23.50;88.50;;;;;;5115548;28;20366;-77
2023/07/26 00:31:03;;;;;;;;;;;23.50;88.50;;;;;;5115437;28;19908;-77
2023/07/26 00:33:29;;;;;;;;;;;23.50;88.50;;;;;;5115435;28;20397;-78
2023/07/26 00:35:54;;;;;;;;;;;23.50;88.50;;;;;;5115334;28;19904;-77
2023/07/26 00:38:20;;;;;;;;;;;23.50;88.50;;;;;;5114996;28;20044;-77
2023/07/26 00:40:45;;;;;;;;;;;23.40;88.50;;;;;;5115604;28;19904;-76
2023/07/26 00:43:11;;;;;;;;;;;23.50;88.50;;;;;;5115258;28;19926;-78
2023/07/26 00:45:38;;;;;;;;;;;23.40;88.50;;;;;;5114793;28;19916;-77
2023/07/26 00:48:04;;;;;;;;;;;23.40;88.50;;;;;;5115316;28;19911;-77
2023/07/26 00:50:29;;;;;;;;;;;23.40;88.50;;;;;;5115102;28;19969;-77
2023/07/26 00:52:55;;;;;;;;;;;23.40;88.50;;;;;;5115210;28;19904;-77
2023/07/26 00:55:20;;;;;;;;;;;23.40;88.50;;;;;;5114720;28;20346;-77
2023/07/26 00:57:46;;;;;;;;;;;23.40;88.50;;;;;;5114720;28;19904;-78
2023/07/26 01:00:12;;;;;;;;;;;23.50;88.60;;;;;;5114672;28;20308;-77
2023/07/26 01:02:37;;;;;;;;;;;23.40;88.60;;;;;;5114696;28;19908;-78
2023/07/26 01:05:03;;;;;;;;;;;23.40;88.50;;;;;;5114805;28;19904;-77
2023/07/26 01:07:38;;;;;;;;;;;23.40;88.60;;;;;;5114796;28;19957;-77
2023/07/26 01:10:09;;;;;;;;;;;23.40;88.50;;;;;;5114538;28;20366;-77
2023/07/26 01:12:42;;;;;;;;;;;23.40;88.60;;;;;;5114496;28;20369;-77
2023/07/26 01:15:10;;;;;;;;;;;23.40;88.50;;;;;;5114464;28;19930;-78
2023/07/26 01:17:36;;;;;;;;;;;23.40;88.50;;;;;;5096462;28;19904;-78
2023/07/26 01:20:01;;;;;;;;;;;23.40;88.50;;;;;;5114436;28;19911;-77
2023/07/26 01:22:27;;;;;;;;;;;23.40;88.50;;;;;;5114721;28;19992;-78
2023/07/26 01:24:52;;;;;;;;;;;23.40;88.50;;;;;;5114707;28;19904;-77
2023/07/26 01:27:18;;;;;;;;;;;23.40;88.50;;;;;;5114676;28;19929;-76
2023/07/26 01:29:43;;;;;;;;;;;23.40;88.50;;;;;;5114567;28;19931;-76
2023/07/26 01:32:10;;;;;;;;;;;23.40;88.60;;;;;;5114347;28;19908;-77
2023/07/26 01:34:36;;;;;;;;;;;23.40;88.60;;;;;;5114293;28;20374;-77
2023/07/26 01:37:02;;;;;;;;;;;23.40;88.60;;;;;;5114586;28;19994;-77
2023/07/26 01:39:28;;;;;;;;;;;23.40;88.60;;;;;;5114267;28;20014;-77
2023/07/26 01:41:54;;;;;;;;;;;23.30;88.50;;;;;;5114488;28;19904;-78
2023/07/26 01:44:19;;;;;;;;;;;23.30;88.50;;;;;;5114325;28;19904;-76
2023/07/26 01:46:45;;;;;;;;;;;23.30;88.50;;;;;;5114205;28;19904;-76
2023/07/26 01:49:10;;;;;;;;;;;23.30;88.50;;;;;;5114114;28;20303;-76
2023/07/26 01:51:36;;;;;;;;;;;23.30;88.50;;;;;;5114487;28;19961;-77
2023/07/26 01:54:01;;;;;;;;;;;23.30;88.50;;;;;;5114422;28;19904;-77
2023/07/26 01:56:27;;;;;;;;;;;23.30;88.50;;;;;;5114399;28;19908;-76
2023/07/26 01:58:52;;;;;;;;;;;23.30;88.40;;;;;;5116486;28;19930;-76
2023/07/26 02:01:18;;;;;;;;;;;23.30;88.50;;;;;;5100139;28;19952;-76
2023/07/26 02:03:43;;;;;;;;;;;23.30;88.50;;;;;;5118313;28;19904;-77
2023/07/26 02:06:08;;;;;;;;;;;23.30;88.50;;;;;;5118572;28;19991;-76
2023/07/26 02:08:34;;;;;;;;;;;23.30;88.50;;;;;;5118144;28;19908;-77
2023/07/26 02:10:59;;;;;;;;;;;23.30;88.40;;;;;;5117888;28;19915;-77
2023/07/26 02:13:25;;;;;;;;;;;23.30;88.50;;;;;;5117869;28;19904;-76
2023/07/26 02:15:50;;;;;;;;;;;23.30;88.40;;;;;;5118117;28;19995;-77
2023/07/26 02:18:16;;;;;;;;;;;23.30;88.50;;;;;;5117783;28;20312;-77
2023/07/26 02:20:41;;;;;;;;;;;23.30;88.40;;;;;;5117970;28;19947;-76
2023/07/26 02:23:07;;;;;;;;;;;23.20;88.40;;;;;;5117679;28;19977;-77
2023/07/26 02:25:32;;;;;;;;;;;23.30;88.50;;;;;;5117935;28;19990;-76
2023/07/26 02:27:58;;;;;;;;;;;23.30;88.50;;;;;;5117482;28;19914;-77
2023/07/26 02:30:23;;;;;;;;;;;23.20;88.50;;;;;;5117580;28;20258;-77
2023/07/26 02:32:49;;;;;;;;;;;23.30;88.50;;;;;;5117823;28;19998;-77
2023/07/26 02:35:14;;;;;;;;;;;23.30;88.40;;;;;;5117453;28;19982;-77
2023/07/26 02:37:40;;;;;;;;;;;23.20;88.40;;;;;;5117697;28;20239;-77
2023/07/26 02:40:05;;;;;;;;;;;23.30;88.40;;;;;;5117626;28;19904;-76
2023/07/26 02:42:31;;;;;;;;;;;23.20;88.40;;;;;;5117959;28;19904;-77
2023/07/26 02:44:56;;;;;;;;;;;23.20;88.30;;;;;;5117171;28;19915;-77
2023/07/26 02:47:22;;;;;;;;;;;23.20;88.30;;;;;;5117212;28;19939;-77
2023/07/26 02:49:47;;;;;;;;;;;23.20;88.40;;;;;;5117423;28;20258;-76
2023/07/26 02:52:13;;;;;;;;;;;23.20;88.30;;;;;;5117379;28;19908;-76
2023/07/26 02:54:38;;;;;;;;;;;23.20;88.30;;;;;;5116976;28;19903;-76
2023/07/26 02:57:05;;;;;;;;;;;23.20;88.30;;;;;;5116964;28;19904;-77
2023/07/26 02:59:30;;;;;;;;;;;23.20;88.30;;;;;;5117219;28;19903;-77
2023/07/26 03:01:56;;;;;;;;;;;23.20;88.30;;;;;;5117230;28;19965;-76
2023/07/26 03:04:21;;;;;;;;;;;23.20;88.30;;;;;;5116837;28;19904;-76
2023/07/26 03:06:47;;;;;;;;;;;23.20;88.30;;;;;;5117085;28;19957;-76
2023/07/26 03:09:12;;;;;;;;;;;23.20;88.30;;;;;;5116078;28;19912;-77
2023/07/26 03:11:37;;;;;;;;;;;23.20;88.30;;;;;;5116163;28;19907;-77
2023/07/26 03:14:03;;;;;;;;;;;23.20;88.30;;;;;;5116933;28;19917;-76
2023/07/26 03:16:29;;;;;;;;;;;23.20;88.30;;;;;;5116900;28;19903;-77
2023/07/26 03:18:54;;;;;;;;;;;23.20;88.30;;;;;;5116846;28;19904;-76
2023/07/26 03:21:20;;;;;;;;;;;23.20;88.30;;;;;;5116809;28;19904;-76
2023/07/26 03:23:45;;;;;;;;;;;23.20;88.30;;;;;;5116741;28;19904;-77
2023/07/26 03:26:11;;;;;;;;;;;23.10;88.30;;;;;;5116686;28;20254;-76
2023/07/26 03:28:36;;;;;;;;;;;23.20;88.30;;;;;;5116223;28;19908;-76
2023/07/26 03:31:02;;;;;;;;;;;23.20;88.40;;;;;;5116299;28;20298;-77
2023/07/26 03:33:27;;;;;;;;;;;23.20;88.30;;;;;;5116542;28;19908;-76
2023/07/26 03:35:53;;;;;;;;;;;23.10;88.30;;;;;;5116517;28;19990;-75
2023/07/26 03:38:18;;;;;;;;;;;23.10;88.30;;;;;;5116174;28;20292;-76
2023/07/26 03:40:44;;;;;;;;;;;23.20;88.30;;;;;;5116124;28;19904;-76
2023/07/26 03:43:09;;;;;;;;;;;23.10;88.30;;;;;;5116680;28;19958;-76
2023/07/26 03:45:35;;;;;;;;;;;23.10;88.30;;;;;;5097809;28;20018;-76
2023/07/26 03:48:00;;;;;;;;;;;23.10;88.30;;;;;;5115885;28;20269;-77
2023/07/26 03:50:26;;;;;;;;;;;23.10;88.30;;;;;;5116149;28;20374;-77
2023/07/26 03:52:51;;;;;;;;;;;23.10;88.30;;;;;;5116208;28;19953;-77
2023/07/26 03:55:17;;;;;;;;;;;23.10;88.30;;;;;;5115951;28;19908;-77
2023/07/26 03:57:43;;;;;;;;;;;23.10;88.30;;;;;;5097692;28;20413;-77
2023/07/26 04:00:08;;;;;;;;;;;23.10;88.40;;;;;;5115766;28;19904;-77
2023/07/26 04:02:34;;;;;;;;;;;23.10;88.40;;;;;;5116030;28;19903;-77
2023/07/26 04:05:00;;;;;;;;;;;23.10;88.30;;;;;;5115689;28;19942;-77
2023/07/26 04:07:25;;;;;;;;;;;23.10;88.30;;;;;;5115919;28;19904;-77
2023/07/26 04:09:51;;;;;;;;;;;23.10;88.30;;;;;;5115686;28;19912;-77
2023/07/26 04:12:16;;;;;;;;;;;23.10;88.40;;;;;;5115779;28;19907;-77
2023/07/26 04:14:42;;;;;;;;;;;23.10;88.40;;;;;;5115460;28;20296;-76
2023/07/26 04:17:07;;;;;;;;;;;23.10;88.30;;;;;;5115591;28;19955;-76
2023/07/26 04:19:33;;;;;;;;;;;23.10;88.40;;;;;;5115517;28;19904;-76
2023/07/26 04:21:58;;;;;;;;;;;23.10;88.40;;;;;;5115081;28;19907;-77
2023/07/26 04:24:24;;;;;;;;;;;23.10;88.40;;;;;;5115747;28;20010;-76
2023/07/26 04:26:49;;;;;;;;;;;23.10;88.40;;;;;;5115269;28;19994;-77
2023/07/26 04:29:15;;;;;;;;;;;23.00;88.30;;;;;;5115374;28;19908;-76
2023/07/26 04:31:40;;;;;;;;;;;23.00;88.30;;;;;;5115312;28;19908;-78
2023/07/26 04:34:06;;;;;;;;;;;23.00;88.40;;;;;;5115626;28;19904;-77
2023/07/26 04:36:31;;;;;;;;;;;23.00;88.40;;;;;;5114792;28;19904;-77
2023/07/26 04:38:57;;;;;;;;;;;23.00;88.40;;;;;;5114926;28;19935;-77
2023/07/26 04:41:22;;;;;;;;;;;23.00;88.40;;;;;;5114916;28;19910;-76
2023/07/26 04:43:47;;;;;;;;;;;23.00;88.40;;;;;;5110091;28;19920;-78
2023/07/26 04:46:13;;;;;;;;;;;23.00;88.50;;;;;;5093980;28;19917;-76
2023/07/26 04:48:39;;;;;;;;;;;23.00;88.50;;;;;;5094369;28;20324;-78
2023/07/26 04:51:04;;;;;;;;;;;23.00;88.50;;;;;;5094642;28;19915;-77
2023/07/26 04:53:29;;;;;;;;;;;23.00;88.50;;;;;;5094319;28;19936;-77
2023/07/26 04:55:55;;;;;;;;;;;23.00;88.60;;;;;;5094231;28;19954;-77
2023/07/26 04:58:21;;;;;;;;;;;23.00;88.50;;;;;;5095097;28;19912;-77
2023/07/26 05:00:46;;;;;;;;;;;23.00;88.70;;;;;;5094247;28;19904;-78
2023/07/26 05:03:12;;;;;;;;;;;22.90;88.60;;;;;;5094573;28;20306;-77
2023/07/26 05:05:38;;;;;;;;;;;23.00;88.70;;;;;;5094131;28;19908;-77
2023/07/26 05:08:04;;;;;;;;;;;23.00;88.70;;;;;;5094175;28;20008;-77
2023/07/26 05:10:30;;;;;;;;;;;22.90;88.60;;;;;;5093991;28;19908;-78
2023/07/26 05:12:56;;;;;;;;;;;23.00;88.70;;;;;;5095515;28;19912;-72
2023/07/26 05:15:22;;;;;;;;;;;22.90;88.60;;;;;;5111849;28;19998;-76
2023/07/26 05:17:47;;;;;;;;;;;23.00;88.70;;;;;;5114427;28;19951;-72
2023/07/26 05:20:13;;;;;;;;;;;22.90;86.70;;;;;;5110468;28;19919;-75
2023/07/26 05:22:39;;;;;;;;;;;22.90;86.00;;;;;;5097642;28;19918;-76
2023/07/26 05:25:05;;;;;;;;;;;22.90;86.80;;;;;;5099329;28;19918;-69
2023/07/26 05:27:30;;;;;;;;;;;22.90;87.30;;;;;;5104035;28;19911;-67
2023/07/26 05:29:57;;;;;;;;;;;22.90;87.70;;;;;;5093337;28;20380;-62
2023/07/26 05:32:23;;;;;;;;;;;22.90;88.20;;;;;;5113307;28;20378;-63
2023/07/26 05:34:48;;;;;;;;;;;22.90;88.50;;;;;;5094802;28;19919;-64
2023/07/26 05:37:14;;;;;;;;;;;22.90;88.80;;;;;;5118333;28;19912;-62
2023/07/26 05:39:39;;;;;;;;;;;22.90;89.00;;;;;;5106764;28;19912;-63
2023/07/26 05:42:05;;;;;;;;;;;22.90;89.10;;;;;;5102582;28;19911;-63
2023/07/26 05:44:31;;;;;;;;;;;22.90;89.20;;;;;;5118016;28;19907;-61
2023/07/26 05:46:58;;;;;;;;;;;22.90;89.30;;;;;;5096966;28;20425;-71
2023/07/26 05:49:23;;;;;;;;;;;22.90;89.50;;;;;;5097973;28;19919;-72
2023/07/26 05:51:49;;;;;;;;;;;22.90;89.30;;;;;;5097599;28;20003;-71
2023/07/26 05:54:14;;;;;;;;;;;22.90;89.30;;;;;;5107649;28;19912;-61
2023/07/26 05:56:40;;;;;;;;;;;22.90;89.20;;;;;;5102936;28;19958;-68
2023/07/26 05:59:05;;;;;;;;;;;22.90;89.20;;;;;;5115531;28;19919;-76
2023/07/26 06:01:31;;;;;;;;;;;22.90;89.30;;;;;;5105301;28;20037;-62
2023/07/26 06:03:56;;;;;;;;;;;22.90;89.40;;;;;;5117608;28;19908;-66
2023/07/26 06:06:22;;;;;;;;;;;22.90;89.90;;;;;;5104414;28;19912;-73
2023/07/26 06:08:47;;;;;;;;;;;22.90;89.40;;;;;;5095914;28;20271;-64
2023/07/26 06:11:13;;;;;;;;;;;22.90;89.40;;;;;;5087140;28;19937;-64
2023/07/26 06:13:38;;;;;;;;;;;22.90;89.50;;;;;;5117741;28;20019;-64
2023/07/26 06:16:04;;;;;;;;;;;22.90;89.50;;;;;;5086444;28;19919;-69
2023/07/26 06:18:29;;;;;;;;;;;22.90;89.50;;;;;;5096643;28;19918;-67
2023/07/26 06:20:55;;;;;;;;;;;22.90;89.50;;;;;;5098989;28;19907;-71
2023/07/26 06:23:20;;;;;;;;;;;22.90;89.50;;;;;;5117557;28;19951;-69
2023/07/26 06:25:46;;;;;;;;;;;22.90;89.50;;;;;;5115469;28;20354;-70
2023/07/26 06:28:11;;;;;;;;;;;22.90;89.50;;;;;;5114608;28;19919;-63
2023/07/26 06:30:37;;;;;;;;;;;22.90;89.50;;;;;;5095765;28;19916;-63
2023/07/26 06:33:02;;;;;;;;;;;22.90;89.50;;;;;;5117698;28;19915;-63
2023/07/26 06:35:28;;;;;;;;;;;22.90;89.50;;;;;;5098783;28;19912;-64
2023/07/26 06:37:53;;;;;;;;;;;22.90;89.50;;;;;;5096303;28;19965;-70
2023/07/26 06:40:18;;;;;;;;;;;22.90;89.50;;;;;;5116142;28;19994;-69
2023/07/26 06:42:44;;;;;;;;;;;22.90;89.50;;;;;;5100577;28;19913;-66
2023/07/26 06:45:10;;;;;;;;;;;22.90;89.50;;;;;;5077518;28;20442;-67
2023/07/26 06:47:35;;;;;;;;;;;22.90;89.50;;;;;;5096594;28;19908;-69
2023/07/26 06:50:01;;;;;;;;;;;22.90;89.60;;;;;;5096338;28;19917;-67
2023/07/26 06:52:32;;;;;;;;;;;22.90;89.50;;;;;;5109615;28;19912;-70
2023/07/26 06:54:58;;;;;;;;;;;22.90;89.60;;;;;;5117023;28;19911;-72
2023/07/26 06:57:23;;;;;;;;;;;22.90;89.50;;;;;;5106364;28;19935;-63
2023/07/26 06:59:49;;;;;;;;;;;22.90;89.50;;;;;;5113171;28;19965;-67
2023/07/26 07:02:14;;;;;;;;;;;22.90;89.60;;;;;;5094699;28;19912;-69
2023/07/26 07:04:40;;;;;;;;;;;22.90;89.50;;;;;;5095858;28;19908;-69
2023/07/26 07:07:05;;;;;;;;;;;22.90;89.60;;;;;;5093828;28;20408;-67
2023/07/26 07:09:30;;;;;;;;;;;22.90;89.60;;;;;;5095094;28;19966;-61
2023/07/26 07:11:56;;;;;;;;;;;22.80;89.50;;;;;;5112851;28;19916;-59
2023/07/26 07:14:21;;;;;;;;;;;22.90;89.50;;;;;;5081824;28;19912;-65
2023/07/26 07:16:47;;;;;;;;;;;22.90;89.60;;;;;;5097702;28;20012;-69
2023/07/26 07:19:12;;;;;;;;;;;22.80;89.50;;;;;;5095369;28;19911;-69
2023/07/26 07:21:38;;;;;;;;;;;22.80;89.60;;;;;;5098839;28;19912;-68
2023/07/26 07:24:04;;;;;;;;;;;22.90;89.60;;;;;;5103083;28;19912;-71
2023/07/26 07:26:30;;;;;;;;;;;22.90;89.50;;;;;;5099557;28;19912;-69
2023/07/26 07:28:55;;;;;;;;;;;22.90;89.60;;;;;;5099432;28;20448;-73
2023/07/26 07:31:21;;;;;;;;;;;22.90;89.60;;;;;;5093802;28;20028;-66
2023/07/26 07:33:46;;;;;;;;;;;22.90;89.70;;;;;;5093575;28;20167;-64
2023/07/26 07:36:17;;;;;;;;;;;22.80;89.60;;;;;;5093885;28;19919;-69
2023/07/26 07:38:44;;;;;;;;;;;22.90;89.80;;;;;;5093468;28;19920;-69
2023/07/26 07:41:09;;;;;;;;;;;22.90;89.70;;;;;;5094301;28;20011;-67
2023/07/26 07:43:35;;;;;;;;;;;22.90;89.70;;;;;;5103954;28;20406;-71
2023/07/26 07:46:00;;;;;;;;;;;22.80;89.60;;;;;;5093324;28;19919;-71
2023/07/26 07:48:26;;;;;;;;;;;22.90;90.00;;;;;;5097536;28;19916;-71
2023/07/26 07:50:55;;;;;;;;;;;22.80;89.60;;;;;;5099049;28;20359;-63
2023/07/26 07:53:21;;;;;;;;;;;22.90;89.40;;;;;;5094094;28;20002;-63
2023/07/26 07:55:46;;;;;;;;;;;22.90;89.50;;;;;;5102440;28;19944;-64
2023/07/26 07:58:12;;;;;;;;;;;22.80;89.50;;;;;;5095168;28;19908;-67
2023/07/26 08:00:37;;;;;;;;;;;22.80;89.50;;;;;;5093651;28;19922;-62
2023/07/26 08:03:03;;;;;;;;;;;22.90;89.60;;;;;;5093845;28;20366;-66
2023/07/26 08:05:29;;;;;;;;;;;22.90;89.60;;;;;;5095140;28;19908;-64
2023/07/26 08:07:54;;;;;;;;;;;22.90;89.60;;;;;;5091703;28;20010;-65
2023/07/26 08:10:20;;;;;;;;;;;22.80;89.60;;;;;;5095134;28;19912;-67
2023/07/26 08:12:46;;;;;;;;;;;22.80;89.60;;;;;;5095115;28;19995;-65
2023/07/26 08:15:12;;;;;;;;;;;22.80;89.60;;;;;;5095202;28;20046;-67
2023/07/26 08:17:38;;;;;;;;;;;22.80;89.60;;;;;;5093008;28;19963;-67
2023/07/26 08:20:04;;;;;;;;;;;22.90;89.70;;;;;;5093686;28;19963;-65
2023/07/26 08:22:30;;;;;;;;;;;22.90;89.70;;;;;;5094856;28;20335;-66
2023/07/26 08:24:55;;;;;;;;;;;22.80;89.60;;;;;;5094666;28;19916;-66
2023/07/26 08:27:21;;;;;;;;;;;22.80;89.60;;;;;;5093716;28;19908;-65
2023/07/26 08:29:46;;;;;;;;;;;22.90;89.70;;;;;;5092518;28;19916;-65
2023/07/26 08:32:12;;;;;;;;;;;22.90;89.70;;;;;;5093504;28;19916;-74
2023/07/26 08:34:37;;;;;;;;;;;22.90;89.80;;;;;;5103204;28;19912;-72
2023/07/26 08:37:03;;;;;;;;;;;22.80;89.70;;;;;;5114745;28;19965;-72
2023/07/26 08:39:28;;;;;;;;;;;22.80;89.70;;;;;;5102596;28;19912;-69
2023/07/26 08:41:54;;;;;;;;;;;22.80;89.70;;;;;;5089156;28;20029;-74
2023/07/26 08:44:19;;;;;;;;;;;22.80;89.80;;;;;;5081427;28;19916;-66
2023/07/26 08:46:46;;;;;;;;;;;22.90;89.90;;;;;;5100376;28;19908;-67
2023/07/26 08:49:12;;;;;;;;;;;22.80;89.80;;;;;;5091621;28;19927;-65
2023/07/26 08:51:38;;;;;;;;;;;22.80;89.60;;;;;;5095395;28;19998;-66
2023/07/26 08:54:03;;;;;;;;;;;22.80;89.80;;;;;;5100275;28;19933;-67
2023/07/26 08:56:29;;;;;;;;;;;22.80;89.80;;;;;;5079578;28;19904;-66
2023/07/26 08:58:54;;;;;;;;;;;22.80;89.80;;;;;;5095092;28;19908;-66
2023/07/26 09:01:20;;;;;;;;;;;22.80;89.80;;;;;;5103935;28;20004;-75
2023/07/26 09:03:45;;;;;;;;;;;22.80;89.80;;;;;;5106304;28;19907;-77
2023/07/26 09:06:11;;;;;;;;;;;22.80;89.80;;;;;;5100809;28;19908;-72
2023/07/26 09:08:36;;;;;;;;;;;22.80;89.80;;;;;;5091914;28;19957;-70
2023/07/26 09:11:20;;;;;;;;;;;22.80;89.80;;;;;;5093968;28;20007;-72
2023/07/26 09:13:51;;;;;;;;;;;22.80;89.80;;;;;;5092556;28;19911;-69
2023/07/26 09:16:18;;;;;;;;;;;22.80;89.80;;;;;;5074250;28;19908;-68
2023/07/26 09:18:54;;;;;;;;;;;22.80;89.90;;;;;;5073883;28;19994;-67
2023/07/26 09:21:23;;;;;;;;;;;22.90;89.90;;;;;;5074414;28;19904;-63
2023/07/26 09:23:49;;;;;;;;;;;22.80;89.90;;;;;;5092116;28;20304;-75
2023/07/26 09:26:14;;;;;;;;;;;22.80;89.80;;;;;;5098140;28;19924;-73
2023/07/26 09:28:50;;;;;;;;;;;22.80;89.90;;;;;;5092464;28;20555;-67
2023/07/26 09:31:28;;;;;;;;;;;22.80;89.90;;;;;;5093918;28;19916;-66
2023/07/26 09:33:54;;;;;;;;;;;22.80;89.90;;;;;;5095463;28;20301;-72
2023/07/26 09:36:19;;;;;;;;;;;22.80;89.90;;;;;;5110031;28;19916;-67
2023/07/26 09:38:45;;;;;;;;;;;22.90;90.00;;;;;;5075585;28;19939;-71
2023/07/26 09:41:23;;;;;;;;;;;22.90;90.00;;;;;;5093501;28;19950;-64
2023/07/26 09:43:49;;;;;;;;;;;22.80;90.00;;;;;;5093475;28;19920;-64
2023/07/26 09:46:15;;;;;;;;;;;22.80;90.00;;;;;;5090556;28;19916;-69
2023/07/26 09:49:01;;;;;;;;;;;22.80;90.00;;;;;;5075136;28;19969;-69
2023/07/26 09:51:27;;;;;;;;;;;22.80;90.00;;;;;;5092830;28;19908;-69
2023/07/26 09:53:54;;;;;;;;;;;22.80;89.90;;;;;;5081795;28;19912;-59
2023/07/26 09:56:20;;;;;;;;;;;22.80;89.90;;;;;;5087397;28;20418;-75
2023/07/26 09:58:48;;;;;;;;;;;22.80;89.90;;;;;;5107090;28;19999;-73
2023/07/26 10:01:14;;;;;;;;;;;22.80;90.00;;;;;;5071507;28;19912;-74
2023/07/26 10:03:40;;;;;;;;;;;22.80;90.00;;;;;;5091385;28;19935;-74
2023/07/26 10:06:06;;;;;;;;;;;22.80;90.00;;;;;;5096135;28;19912;-73
2023/07/26 10:08:32;;;;;;;;;;;22.80;90.00;;;;;;5092218;28;20407;-74
2023/07/26 10:10:57;;;;;;;;;;;22.80;90.00;;;;;;5094484;28;19916;-75
2023/07/26 10:13:24;;;;;;;;;;;22.80;90.00;;;;;;5092256;28;19935;-74
2023/07/26 10:15:51;;;;;;;;;;;22.80;90.00;;;;;;5101563;28;19919;-73
2023/07/26 10:18:19;;;;;;;;;;;22.80;90.00;;;;;;5091302;28;19913;-76
2023/07/26 10:20:45;;;;;;;;;;;22.80;89.90;;;;;;5094698;28;19919;-74
2023/07/26 10:23:12;;;;;;;;;;;22.80;89.80;;;;;;5115370;28;19957;-76
2023/07/26 10:25:38;;;;;;;;;;;22.80;89.80;;;;;;5102102;28;19929;-75
2023/07/26 10:28:04;;;;;;;;;;;22.80;89.80;;;;;;5093015;28;19914;-67
2023/07/26 10:30:30;;;;;;;;;;;22.80;89.80;;;;;;5116009;28;20009;-75
2023/07/26 10:32:58;;;;;;;;;;;22.80;89.70;;;;;;5098440;28;19912;-74
2023/07/26 10:35:24;;;;;;;;;;;22.80;89.70;;;;;;5107629;28;20433;-75
2023/07/26 10:37:51;;;;;;;;;;;22.80;89.70;;;;;;5095689;28;19916;-74
2023/07/26 10:40:35;;;;;;;;;;;22.70;89.60;;;;;;5098408;28;19972;-74
2023/07/26 10:43:19;;;;;;;;;;;22.80;89.70;;;;;;5112554;28;20010;-67
2023/07/26 10:45:44;;;;;;;;;;;22.80;89.50;;;;;;5111247;28;20375;-67
2023/07/26 10:48:14;;;;;;;;;;;22.70;89.50;;;;;;5117024;28;19916;-65
2023/07/26 10:50:40;;;;;;;;;;;22.70;89.60;;;;;;5112806;28;19915;-67
2023/07/26 10:53:24;;;;;;;;;;;22.70;89.60;;;;;;5116019;28;19912;-63
2023/07/26 10:55:50;;;;;;;;;;;22.80;89.70;;;;;;5109618;28;20388;-66
2023/07/26 10:58:15;;;;;;;;;;;22.80;89.70;;;;;;5098592;28;20003;-64
2023/07/26 11:00:41;;;;;;;;;;;22.70;89.70;;;;;;5095329;28;19998;-65
2023/07/26 11:03:08;;;;;;;;;;;22.70;89.70;;;;;;5107295;28;19912;-69
2023/07/26 11:05:37;;;;;;;;;;;22.80;89.80;;;;;;5097453;28;19923;-64
2023/07/26 11:08:04;;;;;;;;;;;22.80;89.90;;;;;;5094461;28;19912;-72
2023/07/26 11:10:37;;;;;;;;;;;22.70;89.80;;;;;;5095761;28;20413;-69
2023/07/26 11:13:05;;;;;;;;;;;22.80;89.90;;;;;;5106793;28;19965;-69
2023/07/26 11:15:31;;;;;;;;;;;22.70;89.90;;;;;;5110678;28;20753;-72
2023/07/26 11:17:56;;;;;;;;;;;22.70;89.90;;;;;;5098594;28;20003;-63
2023/07/26 11:20:22;;;;;;;;;;;22.80;89.90;;;;;;5096042;28;19912;-68
2023/07/26 11:22:48;;;;;;;;;;;22.70;89.90;;;;;;5095389;28;19916;-65
2023/07/26 11:25:14;;;;;;;;;;;22.70;90.00;;;;;;5094856;28;20363;-61
2023/07/26 11:27:39;;;;;;;;;;;22.80;90.00;;;;;;5095587;28;20358;-64
2023/07/26 11:30:06;;;;;;;;;;;22.70;90.00;;;;;;5094354;28;19919;-61
2023/07/26 11:32:31;;;;;;;;;;;22.70;90.00;;;;;;5108979;28;20039;-64
2023/07/26 11:34:57;;;;;;;;;;;22.80;90.00;;;;;;5110606;28;20370;-62
2023/07/26 11:37:23;;;;;;;;;;;22.70;90.00;;;;;;5115855;28;20328;-62
2023/07/26 11:40:01;;;;;;;;;;;22.70;90.00;;;;;;5115986;28;19908;-65
2023/07/26 11:42:27;;;;;;;;;;;22.70;90.00;;;;;;5112791;28;19912;-67
2023/07/26 11:44:53;;;;;;;;;;;22.80;90.00;;;;;;5109242;28;20058;-71
2023/07/26 11:47:18;;;;;;;;;;;22.70;90.00;;;;;;5095092;28;19947;-71
2023/07/26 11:49:44;;;;;;;;;;;22.80;90.00;;;;;;5110784;28;20018;-62
2023/07/26 11:52:13;;;;;;;;;;;22.70;90.00;;;;;;5092764;28;19977;-64
2023/07/26 11:54:52;;;;;;;;;;;22.70;90.00;;;;;;5099949;28;19955;-64
2023/07/26 11:57:18;;;;;;;;;;;22.70;90.00;;;;;;5098320;28;19916;-60
2023/07/26 11:59:44;;;;;;;;;;;22.70;90.00;;;;;;5094476;28;19920;-62
2023/07/26 12:02:09;;;;;;;;;;;22.70;90.00;;;;;;5098942;28;19912;-62
2023/07/26 12:04:35;;;;;;;;;;;22.70;90.00;;;;;;5059740;28;19980;-67
2023/07/26 12:07:01;;;;;;;;;;;22.70;90.00;;;;;;5091892;28;19912;-63
2023/07/26 12:09:26;;;;;;;;;;;22.70;90.00;;;;;;5113888;28;19915;-65
2023/07/26 12:11:55;;;;;;;;;;;22.70;89.90;;;;;;5105152;28;19922;-63
2023/07/26 12:14:20;;;;;;;;;;;22.70;89.90;;;;;;5103574;28;19912;-62
2023/07/26 12:16:52;;;;;;;;;;;22.70;89.70;;;;;;5094399;28;19912;-60
2023/07/26 12:19:22;;;;;;;;;;;22.70;89.90;;;;;;5095138;28;19912;-65
2023/07/26 12:21:48;;;;;;;;;;;22.70;89.90;;;;;;5102715;28;19912;-60
2023/07/26 12:24:13;;;;;;;;;;;22.70;89.90;;;;;;5115322;28;19915;-59
2023/07/26 12:26:40;;;;;;;;;;;22.70;89.90;;;;;;5099616;28;19912;-60
2023/07/26 12:29:06;;;;;;;;;;;22.70;89.90;;;;;;5094334;28;20377;-63
2023/07/26 12:31:33;;;;;;;;;;;22.70;89.90;;;;;;5097525;28;20002;-65
2023/07/26 12:34:08;;;;;;;;;;;22.70;89.90;;;;;;5105779;28;20354;-61
2023/07/26 12:36:36;;;;;;;;;;;22.70;89.90;;;;;;5094673;28;19912;-59
2023/07/26 12:39:02;;;;;;;;;;;22.70;89.90;;;;;;5092568;28;19912;-61
2023/07/26 12:41:28;;;;;;;;;;;22.70;90.20;;;;;;5091260;28;19969;-64
2023/07/26 12:43:54;;;;;;;;;;;22.70;90.00;;;;;;5094188;28;20363;-65
2023/07/26 12:46:20;;;;;;;;;;;22.80;90.00;;;;;;5094448;28;19924;-63
2023/07/26 12:48:46;;;;;;;;;;;22.70;90.00;;;;;;5102249;28;20342;-65
2023/07/26 12:51:11;;;;;;;;;;;22.70;90.00;;;;;;5114103;28;20007;-65
2023/07/26 12:53:37;;;;;;;;;;;22.70;90.00;;;;;;5102263;28;19938;-62
2023/07/26 12:56:02;;;;;;;;;;;22.70;90.00;;;;;;5094003;28;19908;-61
2023/07/26 12:58:27;;;;;;;;;;;22.70;90.00;;;;;;5093914;28;19926;-59
2023/07/26 13:00:53;;;;;;;;;;;22.70;90.00;;;;;;5093827;28;20349;-61
2023/07/26 13:03:19;;;;;;;;;;;22.80;90.20;;;;;;5104060;28;19912;-60
2023/07/26 13:05:45;;;;;;;;;;;22.70;90.00;;;;;;5109490;28;20362;-64
2023/07/26 13:08:11;;;;;;;;;;;22.70;90.00;;;;;;5096337;28;19958;-65
2023/07/26 13:10:36;;;;;;;;;;;22.80;90.10;;;;;;5093677;28;19912;-65
2023/07/26 13:13:03;;;;;;;;;;;22.70;90.10;;;;;;5108844;28;20258;-65
2023/07/26 13:15:28;;;;;;;;;;;22.70;90.00;;;;;;5094620;28;19921;-65
2023/07/26 13:17:54;;;;;;;;;;;22.80;90.10;;;;;;5074440;28;19912;-66
2023/07/26 13:20:19;;;;;;;;;;;22.70;90.00;;;;;;5093713;28;19915;-66
2023/07/26 13:22:45;;;;;;;;;;;22.70;90.10;;;;;;5093585;28;20266;-66
2023/07/26 13:25:11;;;;;;;;;;;22.70;90.10;;;;;;5093648;28;20007;-66
2023/07/26 13:27:36;;;;;;;;;;;22.70;90.10;;;;;;5093691;28;20049;-65
2023/07/26 13:30:03;;;;;;;;;;;22.70;90.10;;;;;;5094006;28;19912;-66
2023/07/26 13:32:29;;;;;;;;;;;22.70;90.10;;;;;;5093003;28;20007;-66
2023/07/26 13:34:55;;;;;;;;;;;22.70;90.10;;;;;;5093541;28;20024;-66
2023/07/26 13:37:20;;;;;;;;;;;22.70;90.10;;;;;;5093471;28;19962;-66
2023/07/26 13:39:46;;;;;;;;;;;22.70;90.10;;;;;;5093572;28;19908;-66
2023/07/26 13:42:11;;;;;;;;;;;22.70;90.10;;;;;;5075714;28;19909;-66
2023/07/26 13:44:37;;;;;;;;;;;22.70;90.10;;;;;;5093354;28;19920;-66
2023/07/26 13:47:02;;;;;;;;;;;22.70;90.10;;;;;;5093615;28;20375;-66
2023/07/26 13:49:28;;;;;;;;;;;22.70;90.10;;;;;;5093298;28;19916;-66
2023/07/26 13:51:53;;;;;;;;;;;22.70;90.10;;;;;;5093269;28;19912;-66
2023/07/26 13:54:19;;;;;;;;;;;22.70;90.10;;;;;;5094150;28;19908;-66
2023/07/26 13:56:44;;;;;;;;;;;22.70;90.10;;;;;;5097601;28;19915;-66
2023/07/26 13:59:10;;;;;;;;;;;22.70;90.10;;;;;;5079381;28;20003;-66
2023/07/26 14:01:35;;;;;;;;;;;22.70;90.10;;;;;;5097529;28;19912;-66
2023/07/26 14:04:01;;;;;;;;;;;22.60;90.10;;;;;;5079153;28;19909;-66
2023/07/26 14:06:28;;;;;;;;;;;22.70;90.10;;;;;;5078877;28;20000;-66
2023/07/26 14:08:53;;;;;;;;;;;22.70;90.10;;;;;;5096871;28;20423;-66
2023/07/26 14:11:19;;;;;;;;;;;22.60;90.10;;;;;;5097198;28;19912;-66